KSKF

Kelly Field Airport

San Antonio, Texas, USA
METAR KSKF 181456Z AUTO 00000KT 10SM OVC048 02/M09 A3050 RMK AO2 SLP334 T00201087 53001 $
Observed Flight Rules
Jan-18 @ 14:56 UTC (42 minutes ago) Visual Flight Rules
Wind Visibility Clouds
Calm 10 miles
  • Overcast at 4,800' AGL
Temperatures Readings
Current 2°C / 36°F
Dewpoint -9°C / 16°F
Humidity 44%
Altimeter 30.5" Hg
Pressure 1033.4 hPa
Elevation 210
METAR KSKF 181456Z AUTO 00000KT 10SM OVC048 02/M09 A3050 RMK AO2 SLP334 T00201087 53001 $
Observed Flight Rules
Jan-18 @ 14:56 UTC
(42 minutes ago)
VFR
Wind Visibility
Calm 10 miles
Clouds
  • Overcast at 4,800' AGL
Temperature Dewpoint
2°C / 36°F -9°C / 16°F
Humidity Altimeter Pressure
44% 30.5" Hg 1033.4 hPa